Time;durP1;ratioP1;P1;durP2;ratioP2;P2;SDS_P1;SDS_P2;PMS_P1;PMS_P2;Temp;Humidity;BMP_temperature;BMP_pressure;BME280_temperature;BME280_humidity;BME280_pressure;Samples;Min_cycle;Max_cycle;Signal;HPM_P1;HPM_P2
2022/10/22 00:00:54;;;;;;;31.88;19.80;;;;;;;12.50;100.00;100529.44;7397575;19;20014;-69
2022/10/22 00:03:23;;;;;;;32.58;19.40;;;;;;;12.46;100.00;100527.81;7396727;19;20497;-69
2022/10/22 00:05:52;;;;;;;33.63;19.98;;;;;;;12.47;100.00;100534.81;7397696;19;20086;-69
2022/10/22 00:08:20;;;;;;;33.72;20.55;;;;;;;12.46;100.00;100538.34;7397498;19;20031;-69
2022/10/22 00:10:49;;;;;;;36.28;20.33;;;;;;;12.47;100.00;100547.09;7396387;19;20501;-69
2022/10/22 00:13:18;;;;;;;33.22;20.20;;;;;;;12.46;100.00;100542.75;7398344;19;20098;-69
2022/10/22 00:15:46;;;;;;;35.42;20.45;;;;;;;12.45;100.00;100523.47;7398865;19;20026;-69
2022/10/22 00:18:17;;;;;;;36.00;20.45;;;;;;;12.43;100.00;100520.03;7398488;19;20439;-69
2022/10/22 00:20:46;;;;;;;34.10;20.00;;;;;;;12.44;100.00;100524.38;7397605;19;20035;-69
2022/10/22 00:23:14;;;;;;;32.25;18.70;;;;;;;12.44;100.00;100518.28;7398305;19;20477;-69
2022/10/22 00:25:43;;;;;;;36.10;19.20;;;;;;;12.43;100.00;100516.53;7398502;19;20082;-70
2022/10/22 00:28:13;;;;;;;37.78;19.38;;;;;;;12.42;100.00;100525.34;7397151;19;20081;-69
2022/10/22 00:30:42;;;;;;;31.15;18.50;;;;;;;12.41;100.00;100529.75;7397582;19;20025;-69
2022/10/22 00:33:10;;;;;;;33.45;19.50;;;;;;;12.39;100.00;100521.88;7398355;19;20078;-69
2022/10/22 00:35:41;;;;;;;32.95;19.15;;;;;;;12.38;100.00;100527.22;7397943;19;20483;-70
2022/10/22 00:38:10;;;;;;;30.77;18.52;;;;;;;12.37;100.00;100538.63;7398700;19;20086;-70
2022/10/22 00:40:38;;;;;;;28.17;17.73;;;;;;;12.36;100.00;100556.19;7396896;19;20100;-70
2022/10/22 00:43:14;;;;;;;32.63;19.27;;;;;;;12.35;100.00;100549.22;7397995;19;20440;-70
2022/10/22 00:45:42;;;;;;;32.97;19.38;;;;;;;12.34;100.00;100539.59;7397852;19;20070;-70
2022/10/22 00:48:14;;;;;;;28.80;17.63;;;;;;;12.34;100.00;100538.75;7396700;19;20078;-70
2022/10/22 00:50:49;;;;;;;32.35;17.50;;;;;;;12.32;100.00;100532.66;7396246;19;20018;-70
2022/10/22 00:53:21;;;;;;;33.53;19.48;;;;;;;12.33;100.00;100530.00;7397436;19;20073;-70
2022/10/22 00:55:59;;;;;;;29.10;18.80;;;;;;;12.33;100.00;100531.75;7397969;19;20039;-69
2022/10/22 00:58:31;;;;;;;30.45;18.35;;;;;;;12.32;100.00;100528.28;7397227;19;20014;-70
2022/10/22 01:01:00;;;;;;;31.38;18.15;;;;;;;12.31;100.00;100523.94;7395689;19;20427;-70
2022/10/22 01:03:28;;;;;;;30.90;17.75;;;;;;;12.30;100.00;100529.25;7396884;19;20028;-70
2022/10/22 01:06:02;;;;;;;27.45;17.23;;;;;;;12.29;100.00;100523.09;7395837;19;20078;-70
2022/10/22 01:14:31;;;;;;;30.52;18.38;;;;;;;12.24;100.00;100517.13;7393886;19;20017;-68
2022/10/22 01:17:07;;;;;;;29.60;17.80;;;;;;;12.21;100.00;100504.94;7396598;19;20427;-68
2022/10/22 01:19:51;;;;;;;27.38;17.02;;;;;;;12.20;100.00;100500.59;7394777;19;20074;-67
2022/10/22 01:22:31;;;;;;;32.40;17.95;;;;;;;12.19;100.00;100501.50;7395019;19;20070;-68
2022/10/22 01:25:06;;;;;;;28.98;17.92;;;;;;;12.17;100.00;100500.69;7395070;19;20024;-68
2022/10/22 01:27:50;;;;;;;31.05;18.63;;;;;;;12.16;100.00;100506.88;7395450;19;20494;-68
2022/10/22 01:30:22;;;;;;;30.27;17.67;;;;;;;12.15;100.00;100509.56;7395830;19;20014;-68
2022/10/22 01:32:54;;;;;;;29.60;17.23;;;;;;;12.13;100.00;100509.59;7396503;19;20078;-68
2022/10/22 01:35:26;;;;;;;33.03;18.52;;;;;;;12.13;100.00;100522.75;7395985;19;20074;-68
2022/10/22 01:38:00;;;;;;;30.38;18.55;;;;;;;12.11;100.00;100521.09;7396601;19;20019;-68
2022/10/22 01:40:30;;;;;;;34.90;19.98;;;;;;;12.09;100.00;100523.75;7396176;19;20082;-68
2022/10/22 01:43:00;;;;;;;32.88;19.23;;;;;;;12.08;100.00;100524.66;7396075;19;20019;-68
2022/10/22 01:45:36;;;;;;;32.47;19.95;;;;;;;12.07;100.00;100522.94;7396073;19;20015;-68
2022/10/22 01:48:17;;;;;;;34.20;20.52;;;;;;;12.05;100.00;100522.97;7395654;19;20082;-68
2022/10/22 01:51:02;;;;;;;31.73;19.77;;;;;;;12.05;100.00;100532.63;7395530;19;20100;-69
2022/10/22 01:53:42;;;;;;;35.40;20.10;;;;;;;12.05;100.00;100527.38;7396276;19;20384;-68
2022/10/22 01:56:21;;;;;;;34.28;20.85;;;;;;;12.04;100.00;100523.03;7395355;19;20498;-68
2022/10/22 01:58:57;;;;;;;34.33;21.20;;;;;;;12.02;100.00;100530.97;7395371;19;20022;-69
2022/10/22 02:01:36;;;;;;;33.97;19.73;;;;;;;12.03;100.00;100537.06;7394008;19;20018;-69
2022/10/22 02:04:11;;;;;;;32.78;20.35;;;;;;;12.00;100.00;100519.63;7395969;19;20019;-69
2022/10/22 02:06:44;;;;;;;33.45;19.73;;;;;;;12.00;100.00;100524.03;7394133;19;20022;-68
2022/10/22 02:09:17;;;;;;;33.85;20.50;;;;;;;11.99;100.00;100520.56;7394348;19;20082;-68
2022/10/22 02:11:47;;;;;;;35.78;20.35;;;;;;;11.99;100.00;100517.06;7393075;19;20014;-69
2022/10/22 02:14:29;;;;;;;32.97;20.45;;;;;;;11.97;100.00;100508.38;7392113;19;20420;-68
2022/10/22 02:17:01;;;;;;;33.40;19.52;;;;;;;11.99;100.00;100506.53;7395300;19;20011;-68
2022/10/22 02:19:38;;;;;;;30.13;19.92;;;;;;;11.97;100.00;100505.75;7393054;19;20432;-69
2022/10/22 02:22:07;;;;;;;31.67;18.75;;;;;;;11.97;100.00;100500.50;7392733;19;20014;-68
2022/10/22 02:24:35;;;;;;;34.55;19.20;;;;;;;11.96;100.00;100512.75;7393178;19;20018;-68
2022/10/22 02:27:11;;;;;;;30.80;19.45;;;;;;;11.94;100.00;100506.63;7394861;19;20021;-68
2022/10/22 02:29:43;;;;;;;32.38;19.83;;;;;;;11.93;100.00;100520.72;7392634;19;20025;-68
2022/10/22 02:32:20;;;;;;;29.52;18.50;;;;;;;11.92;100.00;100523.38;7392829;19;20029;-68
2022/10/22 02:34:50;;;;;;;32.20;19.60;;;;;;;11.90;100.00;100523.41;7394142;19;20419;-68
2022/10/22 02:37:20;;;;;;;35.03;20.77;;;;;;;11.88;100.00;100515.59;7395155;19;20007;-68
2022/10/22 02:39:50;;;;;;;33.70;19.77;;;;;;;11.87;100.00;100527.00;7398667;19;20376;-67
2022/10/22 02:42:18;;;;;;;32.67;19.90;;;;;;;11.86;100.00;100525.28;7399220;19;20019;-68
2022/10/22 02:44:47;;;;;;;29.85;19.02;;;;;;;11.85;100.00;100526.22;7402007;19;20023;-68
2022/10/22 02:47:18;;;;;;;28.92;18.65;;;;;;;11.84;100.00;100524.50;7399093;19;20022;-68
2022/10/22 02:49:46;;;;;;;31.08;19.20;;;;;;;11.83;100.00;100522.75;7398785;19;20502;-68
2022/10/22 02:52:14;;;;;;;32.35;19.52;;;;;;;11.83;100.00;100516.66;7399086;19;20086;-68
2022/10/22 02:54:43;;;;;;;26.80;18.45;;;;;;;11.81;100.00;100503.53;7398561;19;20022;-68
2022/10/22 02:57:11;;;;;;;25.58;18.08;;;;;;;11.80;100.00;100507.06;7401596;19;20066;-68
2022/10/22 02:59:40;;;;;;;27.52;19.35;;;;;;;11.80;100.00;100504.44;7402265;19;20073;-67
2022/10/22 03:02:08;;;;;;;30.50;19.45;;;;;;;11.80;100.00;100500.97;7398991;19;20022;-68
2022/10/22 03:04:39;;;;;;;29.05;19.17;;;;;;;11.79;100.00;100501.88;7401022;19;20021;-68
2022/10/22 03:07:08;;;;;;;26.38;18.52;;;;;;;11.77;100.00;100501.91;7401744;19;20018;-68
2022/10/22 03:09:36;;;;;;;29.92;19.27;;;;;;;11.77;100.00;100509.81;7398554;19;20014;-68
2022/10/22 03:12:04;;;;;;;28.60;18.25;;;;;;;11.77;100.00;100522.94;7398730;19;20018;-68
2022/10/22 03:14:33;;;;;;;26.90;19.05;;;;;;;11.77;100.00;100527.34;7398606;19;20035;-68
2022/10/22 03:17:01;;;;;;;27.02;18.08;;;;;;;11.77;100.00;100511.59;7400964;19;20011;-69
2022/10/22 03:19:30;;;;;;;27.08;18.55;;;;;;;11.75;100.00;100516.84;7400853;19;20018;-69
2022/10/22 03:22:04;;;;;;;26.27;19.30;;;;;;;11.75;100.00;100516.84;7398233;19;20018;-68
2022/10/22 03:24:37;;;;;;;26.00;17.55;;;;;;;11.75;100.00;100516.84;7397921;19;20017;-68
2022/10/22 03:27:05;;;;;;;25.50;17.93;;;;;;;11.75;100.00;100514.22;7400398;19;20015;-68
2022/10/22 03:29:37;;;;;;;28.27;18.60;;;;;;;11.75;100.00;100519.50;7398573;19;20576;-68
2022/10/22 03:32:06;;;;;;;26.42;17.83;;;;;;;11.75;100.00;100508.97;7397941;19;20409;-68
2022/10/22 03:34:34;;;;;;;29.73;18.20;;;;;;;11.74;100.00;100505.50;7400471;19;20086;-68
2022/10/22 03:37:06;;;;;;;27.70;18.20;;;;;;;11.76;100.00;100515.09;7397882;19;20021;-68
2022/10/22 03:39:37;;;;;;;27.33;19.02;;;;;;;11.73;100.00;100519.53;7400323;19;20010;-68
2022/10/22 03:42:08;;;;;;;28.20;18.83;;;;;;;11.75;100.00;100519.50;7397939;19;20070;-68
2022/10/22 03:44:39;;;;;;;28.65;18.77;;;;;;;11.75;100.00;100522.13;7397365;19;20077;-68
2022/10/22 03:47:08;;;;;;;30.08;18.55;;;;;;;11.72;100.00;100530.09;7399535;19;20070;-68
2022/10/22 03:49:36;;;;;;;29.42;18.75;;;;;;;11.76;100.00;100541.41;7396673;19;20078;-68
2022/10/22 03:52:12;;;;;;;24.65;17.65;;;;;;;11.75;100.00;100545.78;7397290;19;20082;-68
2022/10/22 03:54:42;;;;;;;30.05;18.50;;;;;;;11.75;100.00;100553.66;7399505;19;20074;-69
2022/10/22 03:57:11;;;;;;;30.25;19.10;;;;;;;11.75;100.00;100561.53;7399495;19;20422;-69
2022/10/22 03:59:41;;;;;;;27.52;19.38;;;;;;;11.74;100.00;100573.00;7399608;19;20022;-67
2022/10/22 04:02:10;;;;;;;23.70;17.73;;;;;;;11.74;100.00;100568.56;7397061;19;20083;-68
2022/10/22 04:04:39;;;;;;;26.48;17.05;;;;;;;11.74;100.00;100565.09;7399031;19;20515;-71
2022/10/22 04:07:11;;;;;;;28.10;17.63;;;;;;;11.72;100.00;100557.22;7399438;19;20086;-72
2022/10/22 04:09:39;;;;;;;27.45;17.77;;;;;;;11.71;100.00;100545.03;7397722;19;20046;-72
2022/10/22 04:12:08;;;;;;;25.48;18.13;;;;;;;11.72;100.00;100544.09;7397977;19;20098;-71
2022/10/22 04:14:37;;;;;;;25.63;17.95;;;;;;;11.72;100.00;100540.63;7396714;19;20082;-73
2022/10/22 04:17:05;;;;;;;29.25;17.58;;;;;;;11.72;100.00;100536.22;7399175;19;20023;-72
2022/10/22 04:19:34;;;;;;;26.27;17.42;;;;;;;11.72;100.00;100528.31;7398740;19;20018;-72
2022/10/22 04:22:03;;;;;;;26.25;17.48;;;;;;;11.73;100.00;100524.78;7396053;19;20015;-73
2022/10/22 04:24:34;;;;;;;28.20;19.13;;;;;;;11.74;100.00;100529.16;7396558;19;20087;-69
2022/10/22 04:27:03;;;;;;;27.85;19.10;;;;;;;11.73;100.00;100531.84;7396794;19;20094;-69
2022/10/22 04:29:31;;;;;;;25.63;18.23;;;;;;;11.73;100.00;100532.69;7396750;19;20014;-68
2022/10/22 04:32:00;;;;;;;25.00;17.33;;;;;;;11.74;100.00;100533.56;7396494;19;20085;-69
2022/10/22 04:34:30;;;;;;;28.95;18.55;;;;;;;11.71;100.00;100538.88;7397631;19;20073;-69
2022/10/22 04:36:58;;;;;;;116.80;75.03;;;;;;;11.72;100.00;100545.88;7397343;19;20364;-71
2022/10/22 04:39:27;;;;;;;41.90;27.20;;;;;;;11.70;100.00;100545.94;7397764;19;20086;-70
2022/10/22 04:41:58;;;;;;;27.88;20.08;;;;;;;11.68;100.00;100547.72;7395549;19;20078;-69
2022/10/22 04:44:26;;;;;;;26.05;18.55;;;;;;;11.68;100.00;100552.97;7395671;19;20412;-69
2022/10/22 04:46:55;;;;;;;24.85;18.23;;;;;;;11.67;100.00;100555.66;7397621;19;20086;-68
2022/10/22 04:49:23;;;;;;;27.30;19.15;;;;;;;11.66;100.00;100557.41;7396448;19;20018;-68
2022/10/22 04:51:52;;;;;;;30.08;19.20;;;;;;;11.64;100.00;100558.38;7396176;19;20045;-69
2022/10/22 04:54:20;;;;;;;28.42;19.27;;;;;;;11.61;100.00;100559.31;7395260;19;20425;-68
2022/10/22 04:56:49;;;;;;;26.52;19.25;;;;;;;11.62;100.00;100568.09;7397564;19;20422;-69
2022/10/22 04:59:20;;;;;;;30.45;19.40;;;;;;;11.61;100.00;100564.56;7397557;19;20016;-68
2022/10/22 05:01:48;;;;;;;27.45;18.05;;;;;;;11.60;100.00;100559.38;7393643;19;20074;-68
2022/10/22 05:04:18;;;;;;;34.70;20.42;;;;;;;11.58;100.00;100549.75;7395251;19;20011;-68
2022/10/22 05:06:47;;;;;;;31.48;20.33;;;;;;;11.57;100.00;100558.56;7397789;19;20035;-69
2022/10/22 05:09:18;;;;;;;37.58;21.48;;;;;;;11.58;100.00;100565.53;7396541;19;20066;-69
2022/10/22 05:11:49;;;;;;;34.10;23.10;;;;;;;11.57;100.00;100561.19;7395369;19;20070;-69
2022/10/22 05:14:24;;;;;;;31.73;21.08;;;;;;;11.58;100.00;100559.41;7395681;19;20448;-69
2022/10/22 05:16:53;;;;;;;42.55;25.55;;;;;;;11.58;100.00;100559.41;7395827;19;20091;-69
2022/10/22 05:19:24;;;;;;;33.72;21.50;;;;;;;11.58;100.00;100559.41;7396291;19;20014;-70
2022/10/22 05:21:54;;;;;;;33.10;21.67;;;;;;;11.58;100.00;100570.78;7395611;19;20017;-71
2022/10/22 05:24:23;;;;;;;33.75;21.80;;;;;;;11.59;100.00;100574.28;7396693;19;20074;-70
2022/10/22 05:26:52;;;;;;;34.40;20.48;;;;;;;11.58;100.00;100581.28;7396180;19;20021;-69
2022/10/22 05:29:24;;;;;;;33.20;21.15;;;;;;;11.58;100.00;100575.19;7395901;19;20010;-70
2022/10/22 05:31:52;;;;;;;30.98;20.73;;;;;;;11.59;100.00;100574.28;7395216;19;20019;-70
2022/10/22 05:34:21;;;;;;;34.03;21.52;;;;;;;11.61;100.00;100579.50;7394431;19;20015;-70
2022/10/22 05:36:50;;;;;;;34.70;21.38;;;;;;;11.60;100.00;100583.00;7395605;19;20018;-70
2022/10/22 05:39:18;;;;;;;36.05;22.88;;;;;;;11.61;100.00;100584.75;7395857;19;20018;-68
2022/10/22 05:41:47;;;;;;;37.38;21.58;;;;;;;11.61;100.00;100585.59;7394663;19;20384;-68
2022/10/22 05:44:15;;;;;;;35.67;20.77;;;;;;;11.62;100.00;100576.81;7396020;19;20018;-69
2022/10/22 05:46:46;;;;;;;32.22;22.23;;;;;;;11.63;100.00;100575.91;7394391;19;20022;-68
2022/10/22 05:49:17;;;;;;;34.25;22.10;;;;;;;11.65;100.00;100581.13;7394566;19;20423;-69
2022/10/22 05:51:45;;;;;;;33.13;21.27;;;;;;;11.66;100.00;100582.84;7394269;19;20232;-69
2022/10/22 05:54:18;;;;;;;40.88;21.38;;;;;;;11.64;100.00;100575.00;7394110;19;20082;-69
2022/10/22 05:56:47;;;;;;;28.83;19.60;;;;;;;11.67;100.00;100579.31;7396154;19;20031;-70
2022/10/22 05:59:16;;;;;;;32.70;20.92;;;;;;;11.67;100.00;100580.16;7395332;19;20437;-68
2022/10/22 06:01:47;;;;;;;33.58;20.63;;;;;;;11.68;100.00;100581.88;7394330;19;20094;-69
2022/10/22 06:04:16;;;;;;;29.88;19.58;;;;;;;11.67;100.00;100585.41;7395614;19;20501;-69
2022/10/22 06:06:47;;;;;;;29.17;20.02;;;;;;;11.68;100.00;100581.03;7395208;19;20037;-70
2022/10/22 06:09:19;;;;;;;33.45;21.73;;;;;;;11.67;100.00;100574.06;7394029;19;20035;-68
2022/10/22 06:11:49;;;;;;;34.28;20.58;;;;;;;11.67;100.00;100577.53;7394486;19;20414;-71
2022/10/22 06:14:18;;;;;;;32.53;20.75;;;;;;;11.68;100.00;100584.53;7400901;19;20010;-70
2022/10/22 06:16:49;;;;;;;34.22;21.77;;;;;;;11.68;100.00;100589.78;7402455;19;20505;-70
2022/10/22 06:19:20;;;;;;;33.90;20.80;;;;;;;11.68;100.00;100586.31;7403051;19;20018;-71
2022/10/22 06:21:49;;;;;;;33.92;21.30;;;;;;;11.69;100.00;100603.75;7399878;19;20540;-70
2022/10/22 06:24:17;;;;;;;31.40;20.45;;;;;;;11.68;100.00;100599.44;7402485;19;20012;-70
2022/10/22 06:26:46;;;;;;;35.45;21.65;;;;;;;11.68;100.00;100609.94;7402419;19;20074;-70
2022/10/22 06:29:14;;;;;;;30.38;20.52;;;;;;;11.67;100.00;100622.22;7401463;19;20492;-71
2022/10/22 06:31:43;;;;;;;38.13;22.75;;;;;;;11.67;100.00;100616.09;7399610;19;20589;-71
2022/10/22 06:34:17;;;;;;;35.80;22.02;;;;;;;11.66;100.00;100615.22;7401937;19;20079;-71
2022/10/22 06:36:46;;;;;;;36.15;22.77;;;;;;;11.67;100.00;100619.59;7401631;19;20585;-71
2022/10/22 06:39:16;;;;;;;35.95;23.00;;;;;;;11.68;100.00;100620.47;7401651;19;20383;-74
2022/10/22 06:41:45;;;;;;;35.88;21.88;;;;;;;11.69;100.00;100617.78;7398529;19;20028;-69
2022/10/22 06:44:16;;;;;;;37.63;23.00;;;;;;;11.71;100.00;100618.63;7401817;19;20043;-70
2022/10/22 06:46:45;;;;;;;37.85;23.50;;;;;;;11.72;100.00;100620.31;7398960;19;20032;-71
2022/10/22 06:49:17;;;;;;;47.65;29.17;;;;;;;11.74;100.00;100612.41;7401370;19;20022;-70
2022/10/22 06:51:46;;;;;;;50.25;26.83;;;;;;;11.76;100.00;100620.25;7399295;19;20492;-70
2022/10/22 06:54:14;;;;;;;37.60;23.48;;;;;;;11.77;100.00;100622.81;7399270;19;20438;-71
2022/10/22 06:56:43;;;;;;;35.28;22.65;;;;;;;11.78;100.00;100627.19;7401110;19;20074;-68
2022/10/22 06:59:11;;;;;;;38.03;23.60;;;;;;;11.79;100.00;100622.78;7401848;19;20372;-72
2022/10/22 07:01:41;;;;;;;35.63;23.40;;;;;;;11.81;100.00;100626.22;7399282;19;20010;-71
2022/10/22 07:04:10;;;;;;;34.92;23.08;;;;;;;11.84;100.00;100641.91;7401958;19;20015;-71
2022/10/22 07:06:41;;;;;;;39.88;25.25;;;;;;;11.86;100.00;100642.72;7400848;19;20353;-72
2022/10/22 07:09:10;;;;;;;56.40;34.92;;;;;;;11.89;100.00;100642.63;7398144;19;20433;-70
2022/10/22 07:11:41;;;;;;;38.22;24.80;;;;;;;11.94;100.00;100645.97;7400860;19;20014;-69
2022/10/22 07:14:10;;;;;;;47.55;30.92;;;;;;;11.97;100.00;100645.09;7397757;19;20010;-70
2022/10/22 07:16:40;;;;;;;52.25;31.90;;;;;;;12.00;100.00;100650.25;7397848;19;20111;-70
2022/10/22 07:19:09;;;;;;;41.45;25.35;;;;;;;12.04;100.00;100660.63;7400816;19;20021;-70
2022/10/22 07:21:40;;;;;;;37.88;22.48;;;;;;;12.09;100.00;100662.25;7398527;19;20476;-70
2022/10/22 07:24:09;;;;;;;33.28;22.27;;;;;;;12.12;100.00;100667.41;7398686;19;20022;-70
2022/10/22 07:26:38;;;;;;;33.45;22.77;;;;;;;12.15;100.00;100678.72;7400560;19;20039;-71
2022/10/22 07:29:14;;;;;;;32.67;20.95;;;;;;;12.16;100.00;100682.22;7400590;19;20015;-70
2022/10/22 07:31:42;;;;;;;29.83;20.08;;;;;;;12.20;100.00;100683.84;7398296;19;20503;-70
2022/10/22 07:34:11;;;;;;;30.20;20.77;;;;;;;12.22;100.00;100685.53;7397684;19;20014;-70
2022/10/22 07:36:42;;;;;;;31.58;20.25;;;;;;;12.22;100.00;100685.53;7399876;19;20011;-70
2022/10/22 07:39:11;;;;;;;28.95;20.52;;;;;;;12.25;100.00;100689.84;7397170;19;20011;-70
2022/10/22 07:41:39;;;;;;;29.58;19.98;;;;;;;12.27;100.00;100695.03;7397717;19;20019;-69
2022/10/22 07:44:07;;;;;;;30.85;21.05;;;;;;;12.28;100.00;100700.25;7399315;19;20395;-70
2022/10/22 07:46:36;;;;;;;33.67;20.77;;;;;;;12.30;100.00;100694.97;7399743;19;20035;-70
2022/10/22 07:49:05;;;;;;;29.77;20.23;;;;;;;12.32;100.00;100699.28;7399939;19;20033;-71
2022/10/22 07:51:33;;;;;;;27.70;20.25;;;;;;;12.33;100.00;100701.00;7397235;19;20023;-71
2022/10/22 07:54:05;;;;;;;29.83;19.08;;;;;;;12.35;100.00;100698.31;7399199;19;20021;-70
2022/10/22 07:56:33;;;;;;;31.48;20.52;;;;;;;12.38;100.00;100700.84;7397887;19;20014;-70
2022/10/22 07:59:02;;;;;;;27.15;19.48;;;;;;;12.41;100.00;100706.03;7399031;19;20082;-69
2022/10/22 08:01:30;;;;;;;27.58;20.35;;;;;;;12.45;100.00;100709.41;7397479;19;20022;-70
2022/10/22 08:03:59;;;;;;;27.30;19.00;;;;;;;12.46;100.00;100704.13;7398491;19;20011;-70
2022/10/22 08:06:27;;;;;;;28.58;19.98;;;;;;;12.51;100.00;100703.97;7398410;19;20078;-70
2022/10/22 08:08:56;;;;;;;32.08;19.55;;;;;;;12.54;100.00;100715.25;7398846;19;20018;-70
2022/10/22 08:11:27;;;;;;;28.50;18.73;;;;;;;12.57;100.00;100724.84;7396515;19;20022;-70
2022/10/22 08:14:01;;;;;;;24.83;18.58;;;;;;;12.61;100.00;100726.50;7396162;19;20011;-70
2022/10/22 08:16:31;;;;;;;27.05;18.63;;;;;;;12.64;100.00;100726.38;7399007;19;20035;-70
2022/10/22 08:18:59;;;;;;;28.20;20.13;;;;;;;12.68;100.00;100727.16;7398755;19;20394;-70
2022/10/22 08:21:28;;;;;;;28.90;19.48;;;;;;;12.73;100.00;100725.22;7396818;19;20085;-70
2022/10/22 08:23:56;;;;;;;27.33;19.98;;;;;;;12.77;100.00;100737.38;7395994;19;20015;-69
2022/10/22 08:26:27;;;;;;;28.42;21.15;;;;;;;12.82;100.00;100727.56;7398558;19;20022;-70
2022/10/22 08:28:56;;;;;;;27.63;21.67;;;;;;;12.90;100.00;100747.53;7398632;19;20030;-70
2022/10/22 08:31:24;;;;;;;29.10;22.40;;;;;;;12.95;100.00;100738.56;7395798;19;20429;-69
2022/10/22 08:33:53;;;;;;;27.65;21.38;;;;;;;13.00;100.00;100744.59;7397440;19;20034;-70
2022/10/22 08:36:21;;;;;;;26.08;19.98;;;;;;;13.06;100.00;100746.13;7396892;19;20014;-70
2022/10/22 08:38:50;;;;;;;29.55;21.15;;;;;;;13.10;100.00;100742.50;7397143;19;20388;-70
2022/10/22 08:41:22;;;;;;;27.83;20.83;;;;;;;13.15;100.00;100743.19;7394773;19;20031;-71
2022/10/22 08:44:24;;;;;;;29.77;20.60;;;;;;;13.21;100.00;100744.78;7397352;19;20015;-70
2022/10/22 08:47:18;;;;;;;29.25;21.00;;;;;;;13.24;100.00;100746.47;7397136;19;20031;-70
2022/10/22 08:49:47;;;;;;;28.50;20.90;;;;;;;13.30;100.00;100748.91;7398368;19;20073;-69
2022/10/22 08:52:19;;;;;;;28.20;20.80;;;;;;;13.33;100.00;100743.50;7395223;19;20468;-70
2022/10/22 08:54:53;;;;;;;32.88;22.33;;;;;;;13.37;100.00;100745.19;7394993;19;20081;-70
2022/10/22 08:57:36;;;;;;;30.65;23.27;;;;;;;13.40;100.00;100742.44;7397564;19;20029;-69
2022/10/22 09:00:13;;;;;;;27.50;21.63;;;;;;;13.44;100.00;100740.56;7394933;19;20015;-69
2022/10/22 09:02:55;;;;;;;33.80;22.02;;;;;;;13.48;100.00;100735.16;7396573;19;20031;-70
2022/10/22 09:05:35;;;;;;;30.83;22.55;;;;;;;13.52;100.00;100736.75;7397507;19;20014;-70
2022/10/22 09:08:04;;;;;;;33.53;21.77;;;;;;;13.58;100.00;100748.00;7396720;19;20015;-69
2022/10/22 09:10:38;;;;;;;29.35;22.77;;;;;;;13.62;100.00;100747.84;7395740;19;20464;-69
2022/10/22 09:13:06;;;;;;;35.40;22.65;;;;;;;13.68;100.00;100758.16;7397144;19;20029;-70
2022/10/22 09:15:38;;;;;;;31.30;22.50;;;;;;;13.74;100.00;100761.53;7394748;19;20075;-71
2022/10/22 09:18:18;;;;;;;30.50;22.00;;;;;;;13.78;100.00;100763.97;7395086;19;20015;-70
2022/10/22 09:20:52;;;;;;;30.90;22.48;;;;;;;13.82;100.00;100759.47;7396199;19;20087;-70
2022/10/22 09:23:33;;;;;;;32.00;22.58;;;;;;;13.86;100.00;100761.06;7395559;19;20023;-69
2022/10/22 09:26:02;;;;;;;29.45;22.55;;;;;;;13.92;100.00;100755.59;7396359;19;20089;-70
2022/10/22 09:28:31;;;;;;;31.63;22.65;;;;;;;13.95;100.00;100759.88;7394831;19;20014;-70
2022/10/22 09:31:02;;;;;;;34.75;23.13;;;;;;;13.99;100.00;100762.38;7394769;19;20036;-70
2022/10/22 09:33:32;;;;;;;30.45;22.15;;;;;;;14.04;100.00;100767.50;7396968;19;20083;-70
2022/10/22 09:36:05;;;;;;;29.27;20.30;;;;;;;14.09;100.00;100765.53;7396013;19;20032;-70
2022/10/22 09:38:40;;;;;;;27.75;20.95;;;;;;;14.13;100.00;100769.78;7396127;19;20010;-70
2022/10/22 09:41:10;;;;;;;25.95;18.98;;;;;;;14.21;100.00;100780.06;7394993;19;20014;-70
2022/10/22 09:43:39;;;;;;;25.77;21.65;;;;;;;14.27;100.00;100779.00;7395414;19;20470;-70
2022/10/22 09:46:17;;;;;;;29.25;22.55;;;;;;;14.32;100.00;100779.69;7394319;19;20498;-69
2022/10/22 09:48:51;;;;;;;31.13;22.65;;;;;;;14.38;100.00;100779.47;7394551;19;20033;-69
2022/10/22 09:51:23;;;;;;;24.67;19.30;;;;;;;14.44;100.00;100768.66;7393639;19;20010;-69
2022/10/22 09:53:58;;;;;;;27.73;19.08;;;;;;;14.53;100.00;100771.88;7393234;19;20031;-70
2022/10/22 09:56:29;;;;;;;25.35;18.80;;;;;;;14.60;100.00;100768.94;7395250;19;20421;-68
2022/10/22 09:58:59;;;;;;;24.70;18.77;;;;;;;14.68;100.00;100771.31;7395889;19;20045;-69
2022/10/22 10:01:33;;;;;;;24.70;17.63;;;;;;;14.77;100.00;100778.91;7394901;19;20025;-70
2022/10/22 10:04:06;;;;;;;23.50;17.52;;;;;;;14.88;100.00;100777.63;7395868;19;20026;-69
2022/10/22 10:06:37;;;;;;;21.38;17.02;;;;;;;14.95;100.00;100782.59;7395877;19;20019;-68
2022/10/22 10:09:14;;;;;;;22.73;15.65;;;;;;;15.01;100.00;100784.13;7395010;19;20018;-69
2022/10/22 10:11:50;;;;;;;23.33;15.88;;;;;;;15.08;100.00;100782.13;7394081;19;20031;-69
2022/10/22 10:14:26;;;;;;;18.42;14.73;;;;;;;15.17;100.00;100784.38;7392538;19;20334;-70
2022/10/22 10:17:03;;;;;;;20.88;16.00;;;;;;;15.23;100.00;100785.94;7393899;19;20101;-68
2022/10/22 10:19:43;;;;;;;17.92;14.10;;;;;;;15.32;100.00;100785.53;7394822;19;20371;-70
2022/10/22 10:22:25;;;;;;;19.05;14.50;;;;;;;15.38;100.00;100789.69;7392587;19;20480;-70
2022/10/22 10:25:14;;;;;;;16.88;13.20;;;;;;;15.43;100.00;100791.25;7395255;19;20019;-69
2022/10/22 10:27:47;;;;;;;16.70;13.85;;;;;;;15.48;100.00;100794.56;7392191;19;20015;-70
2022/10/22 10:30:20;;;;;;;16.02;12.40;;;;;;;15.52;100.00;100797.94;7394751;19;20027;-71
2022/10/22 10:33:12;;;;;;;15.00;12.40;;;;;;;15.54;100.00;100788.13;7394170;19;20011;-70
2022/10/22 10:35:51;;;;;;;16.73;12.88;;;;;;;15.61;100.00;100788.75;7394918;19;20010;-70
2022/10/22 10:38:40;;;;;;;16.45;13.15;;;;;;;15.69;100.00;100785.78;7394586;19;20022;-70
2022/10/22 10:41:19;;;;;;;13.82;12.30;;;;;;;15.75;100.00;100781.09;7393034;19;20492;-70
2022/10/22 10:44:03;;;;;;;13.75;11.85;;;;;;;15.83;100.00;100785.22;7392475;19;20082;-70
2022/10/22 10:46:40;;;;;;;14.55;10.63;;;;;;;15.87;100.00;100782.41;7392054;19;20323;-70
2022/10/22 10:49:18;;;;;;;15.43;8.55;;;;;;;15.90;99.67;100781.41;7391232;19;20027;-70
2022/10/22 10:52:01;;;;;;;7.13;5.93;;;;;;;15.87;98.10;100784.16;7391858;19;20023;-69
2022/10/22 10:54:46;;;;;;;7.57;5.70;;;;;;;15.88;96.93;100785.88;7394360;19;20022;-70
2022/10/22 10:57:26;;;;;;;8.45;5.82;;;;;;;15.86;96.28;100791.25;7394136;19;20031;-68
2022/10/22 11:00:05;;;;;;;9.60;5.25;;;;;;;15.88;96.40;100789.38;7399203;19;20015;-69
2022/10/22 11:03:00;;;;;;;6.50;4.60;;;;;;;15.92;95.19;100792.75;7401593;19;20031;-70
2022/10/22 11:05:39;;;;;;;8.32;5.30;;;;;;;15.92;93.15;100787.47;7400892;19;20647;-69
2022/10/22 11:08:21;;;;;;;7.85;5.00;;;;;;;16.02;94.29;100793.22;7401060;19;20553;-69
2022/10/22 11:10:54;;;;;;;7.07;5.05;;;;;;;16.09;94.57;100790.25;7397711;19;20073;-70
2022/10/22 11:13:30;;;;;;;12.20;4.72;;;;;;;16.15;93.87;100794.41;7398039;19;20022;-69
2022/10/22 11:16:12;;;;;;;6.88;4.68;;;;;;;16.19;92.37;100792.47;7397189;19;20591;-69
2022/10/22 11:18:46;;;;;;;6.50;4.55;;;;;;;16.20;91.78;100781.84;7400771;19;20041;-68
2022/10/22 11:21:24;;;;;;;6.93;4.47;;;;;;;16.23;92.05;100781.69;7398881;19;20018;-70
2022/10/22 11:23:59;;;;;;;10.88;4.82;;;;;;;16.28;91.77;100781.50;7400050;19;20523;-69
2022/10/22 11:26:38;;;;;;;5.15;4.32;;;;;;;16.34;92.06;100781.22;7400728;19;20032;-69
2022/10/22 11:29:13;;;;;;;9.77;4.63;;;;;;;16.40;91.41;100783.59;7398361;19;20073;-71